This is the latest recevied weather packets stored in our database for station/object WP3XM. If no packets are shown the sender has not sent any weather packets the latest 10 day(s).
| Time | Temp. | Humidity | Pressure | Rain* | Wind** | Luminosity | Snow |
|---|---|---|---|---|---|---|---|
| 1778019288 | 28.33° C | 74% | 1018.1 hPa | 0 mm | - | 35 W/m² | - |
| 1778018985 | 27.78° C | 74% | 1018 hPa | 0 mm | - | 40 W/m² | - |
| 1778018682 | 27.78° C | 74% | 1017.7 hPa | 0 mm | - | 55 W/m² | - |
| 1778018379 | 28.33° C | 73% | 1017.6 hPa | 0 mm | - | 64 W/m² | - |
| 1778018077 | 28.33° C | 73% | 1017.7 hPa | 0 mm | - | 76 W/m² | - |
| 1778017775 | 28.89° C | 72% | 1017.6 hPa | 0 mm | - | 89 W/m² | - |
| 1778017472 | 28.89° C | 71% | 1017.5 hPa | 0 mm | - | 103 W/m² | - |
| 1778017169 | 28.33° C | 72% | 1017.7 hPa | 0 mm | - | 116 W/m² | - |
| 1778016867 | 28.33° C | 72% | 1017.5 hPa | 0 mm | - | 122 W/m² | - |
| 1778016563 | 28.89° C | 71% | 1017.5 hPa | 0 mm | - | 72 W/m² | - |
| 1778016261 | 28.89° C | 71% | 1017.6 hPa | 0 mm | - | 180 W/m² | - |
| 1778015957 | 28.89° C | 72% | 1017.7 hPa | 0 mm | - | 203 W/m² | - |
| 1778015655 | 28.33° C | 73% | 1017.5 hPa | 0 mm | - | 218 W/m² | - |
| 1778015350 | 28.33° C | 74% | 1017.6 hPa | 0 mm | - | 79 W/m² | - |
| 1778015048 | 28.33° C | 73% | 1017.5 hPa | 0 mm | - | 77 W/m² | - |
| 1778014745 | 28.89° C | 73% | 1017.6 hPa | 0 mm | - | 97 W/m² | - |
| 1778014443 | 28.89° C | 72% | 1017.5 hPa | 0 mm | - | 147 W/m² | - |
| 1778014139 | 28.89° C | 70% | 1017.7 hPa | 0 mm | - | 113 W/m² | - |
| 1778013837 | 28.89° C | 71% | 1017.5 hPa | 0 mm | - | 140 W/m² | - |
| 1778013534 | 29.44° C | 69% | 1017.6 hPa | 0 mm | - | 373 W/m² | - |
| 1778013230 | 29.44° C | 69% | 1017.4 hPa | 0 mm | - | 396 W/m² | - |
| 1778012927 | 30° C | 66% | 1017.6 hPa | 0 mm | - | 407 W/m² | - |
| 1778012623 | 30° C | 66% | 1017.8 hPa | 0 mm | - | 449 W/m² | - |
| 1778012320 | 30° C | 65% | 1017.7 hPa | 0 mm | - | 470 W/m² | - |
| 1778012017 | 30° C | 67% | 1017.5 hPa | 0 mm | - | 503 W/m² | - |
* Rain latest hour (hover to see other rain measurements)
** Current wind speed in m/s (hover to see current wind gust speed)